Time;durP1;ratioP1;P1;durP2;ratioP2;P2;SDS_P1;SDS_P2;PMS_P1;PMS_P2;Temp;Humidity;BMP_temperature;BMP_pressure;BME280_temperature;BME280_humidity;BME280_pressure;Samples;Min_cycle;Max_cycle;Signal;HPM_P1;HPM_P2
2022/05/20 00:02:05;;;;;;;2.33;1.40;;;;;;;10.77;54.65;94963.69;5126469;28;20023;-74
2022/05/20 00:04:30;;;;;;;2.22;1.10;;;;;;;10.72;54.80;94959.19;5126458;28;20016;-74
2022/05/20 00:06:56;;;;;;;4.35;1.45;;;;;;;10.67;54.58;94966.47;5126218;28;20011;-74
2022/05/20 00:09:21;;;;;;;2.40;1.25;;;;;;;10.63;54.99;94961.72;5126317;28;20220;-74
2022/05/20 00:11:47;;;;;;;3.05;1.10;;;;;;;10.63;55.21;94956.38;5126292;28;20039;-74
2022/05/20 00:14:12;;;;;;;2.67;1.13;;;;;;;10.59;54.80;94968.69;5126294;28;20051;-74
2022/05/20 00:16:38;;;;;;;4.78;1.30;;;;;;;10.57;54.76;94959.41;5125984;28;20030;-74
2022/05/20 00:19:05;;;;;;;4.55;1.63;;;;;;;10.53;54.84;94961.84;5126064;28;20022;-74
2022/05/20 00:21:32;;;;;;;3.17;1.38;;;;;;;10.47;55.36;94967.53;5125911;28;20011;-74
2022/05/20 00:23:58;;;;;;;4.57;2.10;;;;;;;10.46;55.62;94961.38;5125869;28;20322;-74
2022/05/20 00:26:24;;;;;;;2.10;1.20;;;;;;;10.44;55.55;94963.53;5125906;28;20091;-74
2022/05/20 00:28:50;;;;;;;5.68;1.10;;;;;;;10.42;55.37;94966.50;5125790;28;20015;-74
2022/05/20 00:31:17;;;;;;;3.83;1.30;;;;;;;10.41;55.46;94966.78;5124960;28;20071;-74
2022/05/20 00:33:42;;;;;;;3.65;1.35;;;;;;;10.42;55.27;94982.50;5125751;28;20025;-74
2022/05/20 00:36:09;;;;;;;3.70;1.60;;;;;;;10.43;54.50;94980.63;5125761;28;20019;-74
2022/05/20 00:38:35;;;;;;;5.00;1.20;;;;;;;10.39;54.76;94976.94;5125537;28;20023;-74
2022/05/20 00:41:01;;;;;;;2.67;1.45;;;;;;;10.39;56.05;94976.94;5125332;28;20334;-74
2022/05/20 00:43:29;;;;;;;4.35;1.40;;;;;;;10.37;55.49;94990.53;5124761;28;20318;-74
2022/05/20 00:46:00;;;;;;;6.93;1.42;;;;;;;10.34;54.21;94984.97;5125607;28;20027;-74
2022/05/20 00:48:28;;;;;;;3.50;1.70;;;;;;;10.34;54.49;94982.31;5124045;28;20250;-74
2022/05/20 00:51:16;;;;;;;8.73;1.42;;;;;;;10.32;55.42;94984.47;5125410;28;20027;-74
2022/05/20 00:53:49;;;;;;;8.38;1.60;;;;;;;10.28;55.50;94986.88;5125568;28;20028;-75
2022/05/20 00:56:19;;;;;;;6.60;1.30;;;;;;;10.27;55.05;94985.28;5125243;28;20019;-74
2022/05/20 00:58:45;;;;;;;10.77;1.40;;;;;;;10.22;55.45;94991.47;5125467;28;20308;-74
2022/05/20 01:01:10;;;;;;;6.97;2.47;;;;;;;10.17;55.98;94980.84;5125275;28;20027;-74
2022/05/20 01:03:37;;;;;;;2.53;1.00;;;;;;;10.17;56.49;94980.84;5125145;28;20028;-74
2022/05/20 01:06:03;;;;;;;4.43;1.50;;;;;;;10.19;56.91;94981.38;5125238;28;20076;-74
2022/05/20 01:08:32;;;;;;;3.30;1.17;;;;;;;10.17;56.82;94980.06;5125264;28;20063;-74
2022/05/20 01:10:58;;;;;;;2.78;1.20;;;;;;;10.14;56.52;94984.09;5125032;28;20023;-74
2022/05/20 01:13:27;;;;;;;3.72;1.20;;;;;;;10.12;56.37;94980.13;5125194;28;20028;-75
2022/05/20 01:15:53;;;;;;;5.38;1.27;;;;;;;10.10;56.20;94982.28;5125021;28;20023;-74
2022/05/20 01:18:19;;;;;;;3.95;1.73;;;;;;;10.11;56.06;94971.31;5125095;28;20258;-75
2022/05/20 01:20:53;;;;;;;3.60;1.50;;;;;;;10.11;56.99;94976.66;5124908;28;20075;-75
2022/05/20 01:23:22;;;;;;;4.22;1.30;;;;;;;10.08;57.51;94968.47;5124999;28;20286;-75
2022/05/20 01:25:50;;;;;;;3.33;1.48;;;;;;;10.07;57.83;94980.16;5124983;28;20031;-75
2022/05/20 01:28:18;;;;;;;2.65;1.35;;;;;;;10.03;57.89;94969.28;5124881;28;20020;-75
2022/05/20 01:30:48;;;;;;;2.58;1.42;;;;;;;9.98;57.88;94972.00;5124577;28;20088;-74
2022/05/20 01:33:21;;;;;;;2.45;1.23;;;;;;;9.95;58.18;94977.88;5124657;28;20213;-74
2022/05/20 01:35:47;;;;;;;5.07;1.60;;;;;;;9.89;58.15;94976.34;5124781;28;20026;-74
2022/05/20 01:38:13;;;;;;;8.98;1.92;;;;;;;9.83;58.26;94976.41;5124455;28;20023;-75
2022/05/20 01:40:56;;;;;;;9.93;1.55;;;;;;;9.81;58.44;94977.75;5124475;28;20087;-75
2022/05/20 01:43:36;;;;;;;8.93;1.40;;;;;;;9.79;58.52;94979.88;5124478;28;20262;-75
2022/05/20 01:46:35;;;;;;;3.50;1.00;;;;;;;9.73;58.77;94975.69;5124658;28;20223;-76
2022/05/20 01:49:24;;;;;;;7.45;1.25;;;;;;;9.69;59.22;94967.47;5124240;28;20028;-76
2022/05/20 01:52:06;;;;;;;4.68;1.35;;;;;;;9.65;58.92;94971.78;5124286;28;20027;-75
2022/05/20 01:54:42;;;;;;;3.63;1.58;;;;;;;9.62;58.75;94977.66;5124332;28;20023;-75
2022/05/20 01:57:34;;;;;;;7.68;1.60;;;;;;;9.61;58.58;94973.41;5124367;28;20050;-75
2022/05/20 02:00:12;;;;;;;9.35;1.48;;;;;;;9.54;58.72;94973.72;5123865;28;20024;-75
2022/05/20 02:03:00;;;;;;;3.17;1.40;;;;;;;9.51;59.05;94970.84;5124161;28;20023;-75
2022/05/20 02:05:34;;;;;;;9.57;1.50;;;;;;;9.48;58.74;94980.16;5124100;28;20027;-75
2022/05/20 02:08:20;;;;;;;3.13;1.40;;;;;;;9.47;58.66;94975.13;5124090;28;20094;-74
2022/05/20 02:11:12;;;;;;;8.63;1.58;;;;;;;9.47;58.77;94978.56;5123265;28;20094;-74
2022/05/20 02:13:43;;;;;;;3.33;1.25;;;;;;;9.44;58.78;94963.16;5116961;28;20038;-74
2022/05/20 02:16:13;;;;;;;5.85;1.48;;;;;;;9.41;58.81;94975.16;5123777;28;20038;-74
2022/05/20 02:18:45;;;;;;;4.70;1.30;;;;;;;9.41;58.94;94975.16;5123909;28;20031;-74
2022/05/20 02:21:16;;;;;;;4.55;1.60;;;;;;;9.40;59.07;94978.09;5123819;28;20086;-74
2022/05/20 02:23:46;;;;;;;5.38;1.67;;;;;;;9.37;59.15;94979.44;5123646;28;20058;-74
2022/05/20 02:26:15;;;;;;;4.72;1.58;;;;;;;9.36;59.61;94982.38;5123710;28;20027;-74
2022/05/20 02:28:44;;;;;;;2.30;1.38;;;;;;;9.34;59.79;94989.84;5123653;28;20034;-74
2022/05/20 02:31:15;;;;;;;2.58;1.30;;;;;;;9.32;58.81;94979.50;5123541;28;20031;-74
2022/05/20 02:33:41;;;;;;;6.05;1.27;;;;;;;9.31;58.81;94993.84;5123510;28;20099;-74
2022/05/20 02:36:17;;;;;;;3.97;1.60;;;;;;;9.32;58.60;94990.13;5123522;28;20318;-74
2022/05/20 02:38:43;;;;;;;7.00;2.15;;;;;;;9.33;57.49;94989.03;5123642;28;20102;-74
2022/05/20 02:41:08;;;;;;;2.40;1.58;;;;;;;9.35;58.74;94986.91;5123597;28;20015;-74
2022/05/20 02:43:34;;;;;;;3.25;1.58;;;;;;;9.32;59.00;94981.34;5123557;28;20015;-74
2022/05/20 02:46:01;;;;;;;16.83;5.22;;;;;;;9.30;59.24;94984.28;5123260;28;20091;-73
2022/05/20 02:48:26;;;;;;;8.20;1.90;;;;;;;9.26;59.16;94980.59;5123358;28;20046;-74
2022/05/20 02:50:52;;;;;;;3.33;1.45;;;;;;;9.23;59.45;94983.78;5123552;28;20019;-74
2022/05/20 02:53:18;;;;;;;7.32;1.75;;;;;;;9.21;59.09;94975.28;5123499;28;20020;-74
2022/05/20 02:55:44;;;;;;;2.72;1.30;;;;;;;9.20;59.17;94971.06;5123317;28;20030;-74
2022/05/20 03:04:09;;;;;;;4.65;2.38;;;;;;;9.14;59.58;94966.81;5123286;28;20028;-74
2022/05/20 03:06:23;;;;;;;9.48;1.75;;;;;;;9.09;60.12;94978.28;5123495;28;20026;-74
2022/05/20 03:08:48;;;;;;;2.97;1.60;;;;;;;9.07;59.22;94969.81;5123371;28;20313;-74
2022/05/20 03:11:13;;;;;;;7.53;1.55;;;;;;;9.08;59.70;94970.59;5125609;28;20360;-74
2022/05/20 03:13:39;;;;;;;5.82;1.95;;;;;;;9.03;59.60;94972.22;5127326;28;20043;-74
2022/05/20 03:16:04;;;;;;;8.30;2.00;;;;;;;9.08;59.44;94970.59;5127150;28;20026;-74
2022/05/20 03:18:30;;;;;;;6.90;2.55;;;;;;;9.13;59.06;94973.22;5127387;28;20015;-74
2022/05/20 03:20:55;;;;;;;2.95;1.73;;;;;;;9.14;59.08;94980.13;5127117;28;20022;-74
2022/05/20 03:23:21;;;;;;;5.10;2.13;;;;;;;9.10;58.43;94979.09;5127269;28;20047;-74
2022/05/20 03:25:46;;;;;;;5.22;2.28;;;;;;;9.12;58.92;94971.63;5127125;28;20063;-74
2022/05/20 03:28:12;;;;;;;5.53;2.25;;;;;;;9.10;58.69;94969.25;5127108;28;20049;-74
2022/05/20 03:30:37;;;;;;;6.75;2.30;;;;;;;9.10;58.75;94982.56;5127025;28;20086;-76
2022/05/20 03:33:03;;;;;;;4.80;2.35;;;;;;;9.14;58.79;94980.13;5126917;28;20325;-75
2022/05/20 03:35:28;;;;;;;9.70;2.35;;;;;;;9.18;59.03;94986.47;5126804;28;20022;-75
2022/05/20 03:37:54;;;;;;;5.38;2.80;;;;;;;9.21;59.36;94988.59;5127058;28;20015;-75
2022/05/20 03:40:19;;;;;;;11.38;3.05;;;;;;;9.21;59.61;94999.25;5126774;28;20137;-75
2022/05/20 03:42:45;;;;;;;4.70;2.60;;;;;;;9.22;59.73;95001.63;5126915;28;20020;-74
2022/05/20 03:45:10;;;;;;;4.95;3.08;;;;;;;9.22;59.89;95003.50;5126742;28;20015;-75
2022/05/20 03:47:36;;;;;;;6.47;3.53;;;;;;;9.19;60.39;94998.72;5126433;28;20063;-75
2022/05/20 03:50:03;;;;;;;6.72;2.50;;;;;;;9.17;60.50;95001.66;5126463;28;20029;-74
2022/05/20 03:52:28;;;;;;;9.27;3.00;;;;;;;9.19;61.03;95012.03;5126670;28;20064;-75
2022/05/20 03:54:54;;;;;;;6.20;2.60;;;;;;;9.17;61.18;95014.94;5126828;28;20020;-74
2022/05/20 03:57:19;;;;;;;7.18;3.20;;;;;;;9.17;61.44;95025.59;5108424;28;20219;-75
2022/05/20 03:59:45;;;;;;;6.90;3.00;;;;;;;9.17;61.70;95030.91;5126469;28;20308;-74
2022/05/20 04:02:12;;;;;;;16.85;3.47;;;;;;;9.20;61.78;95025.06;5126364;28;20051;-74
2022/05/20 04:04:41;;;;;;;11.30;3.67;;;;;;;9.30;61.67;95029.53;5126307;28;20046;-74
2022/05/20 04:07:09;;;;;;;10.48;3.38;;;;;;;9.38;61.38;95028.13;5126423;28;20295;-75
2022/05/20 04:09:35;;;;;;;7.55;4.43;;;;;;;9.42;61.62;95027.31;5124716;28;20020;-75
2022/05/20 04:12:05;;;;;;;18.70;4.25;;;;;;;9.52;62.43;95030.97;5124340;28;20077;-75
2022/05/20 04:14:32;;;;;;;8.52;3.45;;;;;;;9.58;62.35;95022.66;5125295;28;20047;-76
2022/05/20 04:16:58;;;;;;;11.52;5.20;;;;;;;9.63;61.20;95013.84;5126006;28;20025;-75
2022/05/20 04:19:25;;;;;;;14.88;4.05;;;;;;;9.65;60.68;95017.03;5125997;28;20016;-74
2022/05/20 04:21:52;;;;;;;9.18;4.03;;;;;;;9.67;60.53;95017.56;5107658;28;20035;-74
2022/05/20 04:24:18;;;;;;;9.38;4.40;;;;;;;9.71;60.32;95017.75;5125938;28;20024;-74
2022/05/20 04:26:44;;;;;;;13.35;3.88;;;;;;;9.77;59.64;95009.47;5125736;28;20028;-73
2022/05/20 04:29:09;;;;;;;17.33;4.43;;;;;;;9.83;59.05;95013.69;5125648;28;20116;-75
2022/05/20 04:31:44;;;;;;;9.63;4.35;;;;;;;9.77;59.36;95017.47;5125719;28;20050;-74
2022/05/20 04:34:10;;;;;;;12.77;3.78;;;;;;;9.86;59.12;95016.84;5125404;28;20027;-74
2022/05/20 04:36:36;;;;;;;7.40;4.05;;;;;;;9.90;59.18;95015.22;5124925;28;20306;-74
2022/05/20 04:39:02;;;;;;;8.85;4.57;;;;;;;10.00;59.18;95020.47;5125457;28;20084;-75
2022/05/20 04:46:56;;;;;;;9.10;4.45;;;;;;;10.09;59.75;95029.41;5125451;28;20050;-77
2022/05/20 04:49:23;;;;;;;17.10;4.78;;;;;;;10.12;59.71;95034.19;5124651;28;20017;-78
2022/05/20 04:51:52;;;;;;;14.55;5.03;;;;;;;10.14;59.90;95032.03;5124628;28;20019;-77
2022/05/20 04:57:02;;;;;;;11.23;4.85;;;;;;;10.16;59.95;95058.41;5124471;28;20257;-77
2022/05/20 04:59:27;;;;;;;21.08;5.90;;;;;;;10.19;59.81;95057.84;5124425;28;20028;-77
2022/05/20 05:01:53;;;;;;;18.85;5.90;;;;;;;10.30;59.86;95051.38;5124837;28;20020;-77
2022/05/20 05:04:20;;;;;;;16.02;5.68;;;;;;;10.36;60.10;95050.25;5124442;28;20344;-75
2022/05/20 05:06:47;;;;;;;11.60;4.65;;;;;;;10.45;59.37;95045.09;5124140;28;20042;-77
2022/05/20 05:09:13;;;;;;;14.43;5.88;;;;;;;10.56;59.00;95040.44;5124152;28;20053;-76
2022/05/20 05:11:40;;;;;;;7.80;4.95;;;;;;;10.57;59.24;95044.72;5124031;28;20268;-78
2022/05/20 05:14:07;;;;;;;11.25;5.35;;;;;;;10.70;59.25;95048.56;5124114;28;20091;-78
2022/05/20 05:16:34;;;;;;;15.55;4.47;;;;;;;10.81;58.70;95050.81;5123935;28;20377;-77
2022/05/20 05:18:59;;;;;;;8.98;4.18;;;;;;;10.88;58.40;95047.03;5123796;28;20080;-73
2022/05/20 05:21:25;;;;;;;10.90;5.20;;;;;;;10.94;58.05;95049.31;5123795;28;20019;-72
2022/05/20 05:23:50;;;;;;;16.15;4.60;;;;;;;11.00;57.74;95053.53;5123705;28;20086;-72
2022/05/20 05:26:16;;;;;;;11.75;4.68;;;;;;;11.08;57.15;95048.66;5123727;28;20382;-75
2022/05/20 05:28:41;;;;;;;9.27;4.07;;;;;;;11.11;56.13;95054.19;5123571;28;20027;-74
2022/05/20 05:31:07;;;;;;;9.82;3.97;;;;;;;11.15;56.12;95038.41;5123544;28;20024;-72
2022/05/20 05:33:32;;;;;;;11.65;4.43;;;;;;;11.25;55.70;95046.25;5122819;28;20099;-75
2022/05/20 05:35:58;;;;;;;7.55;3.60;;;;;;;11.27;54.79;95052.09;5123679;28;20032;-72
2022/05/20 05:38:24;;;;;;;10.15;4.07;;;;;;;11.35;54.18;95046.13;5123479;28;20032;-72
2022/05/20 05:40:49;;;;;;;9.70;4.15;;;;;;;11.48;54.09;95049.16;5123359;28;20023;-72
2022/05/20 05:43:15;;;;;;;8.70;4.05;;;;;;;11.57;53.99;95047.44;5123416;28;20028;-72
2022/05/20 05:45:41;;;;;;;7.82;3.63;;;;;;;11.72;54.17;95038.38;5123420;28;20023;-73
2022/05/20 05:48:09;;;;;;;19.92;4.13;;;;;;;11.84;53.28;95036.88;5082574;28;1164686;-73
2022/05/20 05:50:38;;;;;;;13.02;3.25;;;;;;;11.91;52.30;95041.06;5124228;28;20095;-73
2022/05/20 05:53:15;;;;;;;9.10;3.22;;;;;;;12.03;51.45;95028.84;5123826;28;20015;-73
2022/05/20 05:55:45;;;;;;;7.85;2.67;;;;;;;12.10;50.70;95031.13;5124303;28;20090;-74
2022/05/20 05:58:11;;;;;;;10.40;2.45;;;;;;;12.16;50.61;95048.66;5124056;28;20027;-73
2022/05/20 06:00:37;;;;;;;11.05;3.10;;;;;;;12.26;50.21;95041.56;5123892;28;20035;-76
2022/05/20 06:03:04;;;;;;;16.23;4.13;;;;;;;12.31;51.67;95044.91;5124065;28;20026;-74
2022/05/20 06:05:30;;;;;;;10.25;3.90;;;;;;;12.28;51.39;95045.50;5123932;28;20019;-74
2022/05/20 06:07:56;;;;;;;19.75;3.78;;;;;;;12.31;50.64;95041.44;5124006;28;20136;-75
2022/05/20 06:10:22;;;;;;;8.35;3.58;;;;;;;12.39;50.44;95038.88;5123977;28;20333;-75
2022/05/20 06:12:49;;;;;;;12.18;4.28;;;;;;;12.45;51.98;95040.38;5123522;28;20090;-74
2022/05/20 06:15:19;;;;;;;10.07;4.35;;;;;;;12.55;51.74;95039.41;5122364;28;20323;-76
2022/05/20 06:17:44;;;;;;;8.05;3.47;;;;;;;12.64;50.51;95036.84;5123392;28;20012;-78
2022/05/20 06:20:11;;;;;;;19.90;4.28;;;;;;;12.69;50.41;95039.41;5123565;28;20016;-77
2022/05/20 06:22:36;;;;;;;10.65;4.07;;;;;;;12.75;50.00;95048.13;5123760;28;20043;-74
2022/05/20 06:25:03;;;;;;;5.78;3.67;;;;;;;12.83;49.94;95034.06;5123484;28;20023;-74
2022/05/20 06:27:28;;;;;;;9.60;3.13;;;;;;;12.95;49.66;95029.00;5123670;28;20341;-74
2022/05/20 06:29:54;;;;;;;13.07;5.45;;;;;;;13.11;49.67;95029.47;5123576;28;20015;-75
2022/05/20 06:32:20;;;;;;;11.23;4.80;;;;;;;13.26;49.46;95039.06;5123515;28;20321;-73
2022/05/20 06:40:18;;;;;;;14.05;3.50;;;;;;;13.49;49.57;95036.44;5123431;28;20122;-74
2022/05/20 06:42:44;;;;;;;14.57;4.00;;;;;;;13.64;49.26;95030.75;5123350;28;20094;-74
2022/05/20 06:45:11;;;;;;;19.50;3.88;;;;;;;13.75;49.05;95031.31;5122220;28;20027;-74
2022/05/20 06:47:37;;;;;;;9.73;3.65;;;;;;;13.85;48.71;95031.84;5123344;28;20043;-74
2022/05/20 06:50:03;;;;;;;12.95;4.00;;;;;;;14.02;47.90;95036.56;5123352;28;20023;-73
2022/05/20 06:52:29;;;;;;;18.65;3.90;;;;;;;14.09;48.11;95029.97;5123244;28;20221;-74
2022/05/20 06:54:55;;;;;;;11.43;3.88;;;;;;;14.20;47.84;95036.63;5123211;28;20110;-73
2022/05/20 06:57:21;;;;;;;13.18;4.07;;;;;;;14.28;46.40;95038.59;5123244;28;20042;-74
2022/05/20 06:59:47;;;;;;;13.35;4.78;;;;;;;14.37;47.67;95030.56;5123259;28;20126;-76
2022/05/20 07:02:13;;;;;;;19.17;4.30;;;;;;;14.43;47.48;95040.06;5123255;28;20020;-74
2022/05/20 07:04:39;;;;;;;25.95;4.53;;;;;;;14.48;46.29;95029.22;5123079;28;20340;-73
2022/05/20 07:07:05;;;;;;;12.93;3.88;;;;;;;14.61;46.09;95031.06;5123226;28;20023;-73
2022/05/20 07:09:31;;;;;;;12.57;4.32;;;;;;;14.70;45.93;95028.41;5122990;28;20064;-74
2022/05/20 07:11:56;;;;;;;11.80;3.65;;;;;;;14.78;45.28;95021.47;5123287;28;20024;-76
2022/05/20 07:14:22;;;;;;;14.80;3.97;;;;;;;14.86;44.27;95028.78;5123166;28;20058;-73
2022/05/20 07:16:48;;;;;;;8.00;4.40;;;;;;;14.89;43.98;95017.41;5122736;28;20099;-73
2022/05/20 07:19:14;;;;;;;9.15;3.38;;;;;;;14.92;43.55;95019.47;5123015;28;20026;-73
2022/05/20 07:21:39;;;;;;;12.38;3.45;;;;;;;14.98;43.35;95028.97;5122933;28;20020;-74
2022/05/20 07:24:05;;;;;;;13.15;3.55;;;;;;;15.04;43.32;95022.34;5123016;28;20020;-73
2022/05/20 07:26:32;;;;;;;8.45;3.75;;;;;;;15.11;43.56;95023.78;5123041;28;20080;-73
2022/05/20 07:28:57;;;;;;;9.07;4.65;;;;;;;15.20;43.40;95029.94;5122772;28;20027;-73
2022/05/20 07:31:24;;;;;;;12.38;3.40;;;;;;;15.29;42.63;95028.06;5122990;28;20264;-73
2022/05/20 07:33:51;;;;;;;11.45;3.60;;;;;;;15.28;42.89;95031.84;5122926;28;20035;-74
2022/05/20 07:36:16;;;;;;;13.38;3.13;;;;;;;15.32;42.17;95022.06;5123110;28;20314;-75
2022/05/20 07:38:43;;;;;;;12.98;3.97;;;;;;;15.42;41.11;95021.75;5122946;28;20072;-75
2022/05/20 07:41:10;;;;;;;26.08;4.45;;;;;;;15.52;40.96;95019.88;5104803;28;20094;-74
2022/05/20 07:43:36;;;;;;;12.65;3.90;;;;;;;15.57;41.17;95022.38;5122899;28;20032;-74
2022/05/20 07:46:02;;;;;;;15.10;4.18;;;;;;;15.69;40.57;95025.22;5122882;28;20241;-74
2022/05/20 07:48:28;;;;;;;15.63;3.92;;;;;;;15.69;40.06;95016.38;5122831;28;20121;-74
2022/05/20 07:50:59;;;;;;;10.95;3.50;;;;;;;15.73;40.67;95020.84;5123024;28;20088;-74
2022/05/20 07:53:33;;;;;;;18.67;4.18;;;;;;;15.72;41.03;95010.41;5122773;28;20027;-73
2022/05/20 07:56:05;;;;;;;10.60;3.45;;;;;;;15.82;39.15;95016.25;5123081;28;20042;-73
2022/05/20 07:58:39;;;;;;;9.50;3.78;;;;;;;15.88;39.89;95013.41;5126243;28;20039;-74
2022/05/20 08:01:04;;;;;;;11.85;4.50;;;;;;;15.94;41.25;95012.16;5126506;28;20037;-74
2022/05/20 08:06:19;;;;;;;18.50;4.38;;;;;;;16.12;38.38;95011.00;5126221;28;20190;-74
2022/05/20 08:08:45;;;;;;;14.50;4.20;;;;;;;16.17;39.67;95000.06;5125832;28;20016;-75
2022/05/20 08:11:10;;;;;;;12.63;3.90;;;;;;;16.28;39.54;94997.03;5126012;28;20028;-73
2022/05/20 08:13:36;;;;;;;9.25;3.60;;;;;;;16.36;39.95;95001.59;5126120;28;20098;-74
2022/05/20 08:16:02;;;;;;;16.73;3.97;;;;;;;16.49;38.06;95003.31;5125966;28;20024;-75
2022/05/20 08:18:27;;;;;;;5.97;2.13;;;;;;;16.64;34.48;95005.44;5125946;28;20023;-74
2022/05/20 08:20:52;;;;;;;3.97;1.60;;;;;;;16.73;34.31;94994.66;5125886;28;20023;-75
2022/05/20 08:23:18;;;;;;;4.95;1.88;;;;;;;16.78;32.64;94999.06;5125748;28;20059;-73
2022/05/20 08:25:43;;;;;;;7.38;1.95;;;;;;;16.93;32.64;94995.81;5125768;28;20034;-73
2022/05/20 08:28:09;;;;;;;10.93;2.25;;;;;;;17.07;32.94;94990.22;5125994;28;20068;-73
2022/05/20 08:30:34;;;;;;;4.65;2.20;;;;;;;17.29;33.66;94988.34;5125769;28;20217;-73
2022/05/20 08:33:00;;;;;;;3.65;1.90;;;;;;;17.40;32.79;94998.41;5125715;28;20083;-73
2022/05/20 08:35:27;;;;;;;5.68;2.05;;;;;;;17.49;33.52;94987.56;5125962;28;20019;-73
2022/05/20 08:37:54;;;;;;;8.55;2.22;;;;;;;17.58;32.93;94995.56;5107207;28;20027;-74
2022/05/20 08:40:27;;;;;;;9.75;2.10;;;;;;;17.70;32.86;94990.22;5125754;28;20160;-73
2022/05/20 08:42:55;;;;;;;9.07;2.33;;;;;;;17.80;32.77;94981.72;5125688;28;20085;-74
2022/05/20 08:45:23;;;;;;;9.95;1.77;;;;;;;17.93;32.61;94982.59;5125650;28;20026;-72
2022/05/20 08:47:51;;;;;;;4.55;1.45;;;;;;;18.00;31.87;94979.38;5125301;28;20047;-74
2022/05/20 08:50:24;;;;;;;6.88;2.17;;;;;;;18.16;31.75;94980.31;5125282;28;20028;-74
2022/05/20 08:52:52;;;;;;;11.57;2.33;;;;;;;18.27;32.44;94975.25;5125217;28;20133;-74
2022/05/20 08:55:17;;;;;;;5.13;1.90;;;;;;;18.40;32.17;94973.38;5125348;28;20024;-75
2022/05/20 08:57:50;;;;;;;11.52;2.13;;;;;;;18.44;31.05;94968.91;5125281;28;20076;-74
2022/05/20 09:00:17;;;;;;;7.70;1.90;;;;;;;18.45;32.36;94971.25;5125338;28;20052;-74
2022/05/20 09:02:43;;;;;;;4.15;1.88;;;;;;;18.48;30.47;94964.41;5125320;28;20187;-74
2022/05/20 09:05:30;;;;;;;8.50;2.05;;;;;;;18.53;30.55;94958.00;5125097;28;20060;-74
2022/05/20 09:07:57;;;;;;;6.97;1.75;;;;;;;18.58;31.64;94957.75;5124133;28;20246;-74
2022/05/20 09:10:36;;;;;;;15.93;2.28;;;;;;;18.65;31.01;94945.28;5124862;28;20019;-74
2022/05/20 09:13:06;;;;;;;7.50;2.15;;;;;;;18.83;30.47;94947.78;5124589;28;20030;-73
2022/05/20 09:15:43;;;;;;;10.15;1.92;;;;;;;18.92;28.76;94940.34;5124854;28;20098;-73
2022/05/20 09:18:39;;;;;;;2.95;1.40;;;;;;;18.95;30.12;94938.84;5124856;28;20086;-74
2022/05/20 09:21:05;;;;;;;6.75;1.98;;;;;;;19.10;31.18;94929.28;5120872;28;20044;-74
2022/05/20 09:23:32;;;;;;;11.32;1.85;;;;;;;19.24;30.50;94927.78;5124699;28;20086;-74
2022/05/20 09:26:11;;;;;;;7.45;2.08;;;;;;;19.37;28.73;94922.34;5124759;28;20027;-74
2022/05/20 09:29:05;;;;;;;12.10;2.35;;;;;;;19.52;27.98;94924.31;5124236;28;20084;-74
2022/05/20 09:31:48;;;;;;;4.65;1.55;;;;;;;19.50;26.99;94917.66;5124523;28;20027;-73
2022/05/20 09:34:33;;;;;;;3.38;1.45;;;;;;;19.48;26.57;94909.09;5124452;28;20095;-74
2022/05/20 09:37:01;;;;;;;11.88;1.60;;;;;;;19.50;26.95;94909.56;5124373;28;20027;-74
2022/05/20 09:39:39;;;;;;;6.97;1.45;;;;;;;19.58;25.49;94903.22;5124572;28;20069;-74
2022/05/20 09:42:32;;;;;;;2.65;1.30;;;;;;;19.61;23.82;94908.72;5124329;28;20091;-74
2022/05/20 09:45:00;;;;;;;2.92;1.25;;;;;;;19.67;22.96;94903.84;5121807;28;20036;-74
2022/05/20 09:47:43;;;;;;;6.65;2.08;;;;;;;19.78;23.60;94907.69;5124188;28;20036;-74
2022/05/20 09:50:27;;;;;;;5.78;1.17;;;;;;;19.82;24.74;94903.16;5124122;28;20023;-75
2022/05/20 09:53:08;;;;;;;10.23;1.10;;;;;;;19.81;21.96;94904.28;5124216;28;20065;-75
2022/05/20 09:55:43;;;;;;;5.20;1.45;;;;;;;19.91;21.57;94902.97;5124008;28;20024;-75
2022/05/20 09:58:18;;;;;;;8.57;1.15;;;;;;;20.04;22.68;94896.34;5124210;28;20019;-74
2022/05/20 10:01:05;;;;;;;5.70;1.17;;;;;;;20.24;25.02;94888.34;5124062;28;20063;-74
2022/05/20 10:03:37;;;;;;;7.47;2.65;;;;;;;20.40;25.70;94893.75;5123936;28;20057;-74
2022/05/20 10:06:14;;;;;;;;;;;;;;;20.52;24.42;94888.25;5124380;28;20025;-74
2022/05/20 10:09:03;;;;;;;2.65;1.40;;;;;;;20.60;22.71;94881.88;5124078;28;19927;-74
2022/05/20 10:11:38;;;;;;;12.73;1.50;;;;;;;20.66;24.05;94893.25;5123745;28;20024;-75
2022/05/20 10:14:11;;;;;;;2.70;1.42;;;;;;;20.77;24.31;94888.06;5123973;28;20031;-74
2022/05/20 10:16:49;;;;;;;5.47;1.35;;;;;;;20.88;23.90;94880.94;5123974;28;20069;-73
2022/05/20 10:19:42;;;;;;;6.57;1.58;;;;;;;20.99;23.15;94876.53;5123627;28;20114;-73
2022/05/20 10:22:21;;;;;;;3.53;1.30;;;;;;;21.10;23.45;94863.22;5123707;28;20020;-74
2022/05/20 10:25:00;;;;;;;3.85;1.15;;;;;;;21.25;24.48;94875.16;5123548;28;20011;-74
2022/05/20 10:27:51;;;;;;;2.67;1.48;;;;;;;21.36;23.95;94868.00;5123538;28;20031;-74
2022/05/20 10:33:16;;;;;;;5.60;1.20;;;;;;;21.60;22.25;94858.81;5123500;28;20050;-74
2022/05/20 10:36:06;;;;;;;4.53;1.30;;;;;;;21.69;20.91;94858.56;5105150;28;20106;-74
2022/05/20 10:38:55;;;;;;;4.93;1.63;;;;;;;21.64;21.49;94851.53;5123430;28;20029;-74
2022/05/20 10:41:46;;;;;;;3.58;1.40;;;;;;;21.75;22.08;94848.22;5123550;28;20023;-75
2022/05/20 10:50:31;;;;;;;4.03;1.55;;;;;;;22.04;22.08;94844.06;5123256;28;20348;-75
2022/05/20 10:53:27;;;;;;;7.00;0.93;;;;;;;22.17;18.49;94837.31;5123228;28;20031;-74
2022/05/20 10:56:08;;;;;;;4.55;1.30;;;;;;;22.21;18.11;94830.00;5123271;28;20019;-75
2022/05/20 10:58:57;;;;;;;2.63;1.20;;;;;;;22.26;18.90;94831.66;5123122;28;20092;-72
2022/05/20 11:01:30;;;;;;;6.28;1.73;;;;;;;22.21;17.64;94829.22;5123165;28;20318;-73
2022/05/20 11:03:56;;;;;;;4.97;1.33;;;;;;;22.19;18.67;94829.59;5123531;28;20267;-73
2022/05/20 11:06:33;;;;;;;8.07;1.23;;;;;;;22.26;19.38;94820.03;5123234;28;20027;-74
2022/05/20 11:09:06;;;;;;;7.35;1.45;;;;;;;22.41;20.14;94827.25;5123063;28;20023;-74
2022/05/20 11:11:50;;;;;;;5.78;1.55;;;;;;;22.59;20.32;94813.91;5123076;28;20028;-72
2022/05/20 11:14:34;;;;;;;5.13;2.47;;;;;;;22.73;20.81;94813.31;5123143;28;20024;-74
2022/05/20 11:17:17;;;;;;;3.53;1.38;;;;;;;22.93;21.18;94803.88;5123117;28;20083;-74
2022/05/20 11:19:46;;;;;;;9.63;1.73;;;;;;;23.10;20.43;94804.50;5122674;28;20023;-74
2022/05/20 11:22:36;;;;;;;3.00;1.10;;;;;;;23.18;17.89;94800.72;5122921;28;20309;-73
2022/05/20 11:25:01;;;;;;;7.63;1.50;;;;;;;23.20;18.24;94803.84;5122795;28;20103;-73
2022/05/20 11:27:47;;;;;;;8.80;1.33;;;;;;;23.28;17.81;94799.28;5123064;28;20023;-73
2022/05/20 11:30:31;;;;;;;5.07;1.95;;;;;;;23.39;16.89;94800.19;5122904;28;20043;-74
2022/05/20 11:33:12;;;;;;;8.40;1.33;;;;;;;23.44;15.73;94797.91;5126390;28;20035;-74
2022/05/20 11:36:02;;;;;;;8.98;1.60;;;;;;;23.37;15.87;94792.41;5126755;28;20046;-75
2022/05/20 11:39:05;;;;;;;4.60;1.25;;;;;;;23.23;15.27;94781.38;5126976;28;20306;-75
2022/05/20 11:42:05;;;;;;;5.03;1.27;;;;;;;23.10;16.10;94772.69;5104143;28;20027;-75
2022/05/20 11:44:52;;;;;;;2.10;1.42;;;;;;;23.28;17.61;94782.97;5126789;28;20027;-74
2022/05/20 11:47:38;;;;;;;5.60;1.60;;;;;;;23.54;18.24;94779.34;5126405;28;20349;-74
2022/05/20 11:50:34;;;;;;;4.28;1.40;;;;;;;23.66;16.70;94776.38;5126604;28;20020;-75
2022/05/20 11:53:03;;;;;;;5.70;1.35;;;;;;;23.80;17.62;94764.84;5126399;28;20015;-74
2022/05/20 11:55:39;;;;;;;4.45;1.38;;;;;;;23.97;14.85;94766.16;5126390;28;20078;-74
2022/05/20 11:58:08;;;;;;;2.63;1.30;;;;;;;24.09;17.32;94762.38;5126270;28;20023;-74
2022/05/20 12:00:42;;;;;;;8.57;1.70;;;;;;;24.22;18.39;94758.97;5126185;28;20023;-74
2022/05/20 12:03:15;;;;;;;7.13;1.33;;;;;;;24.41;16.87;94757.16;5126109;28;20330;-74
2022/05/20 12:05:47;;;;;;;3.92;1.92;;;;;;;24.66;17.37;94753.81;5126232;28;20023;-74
2022/05/20 12:08:37;;;;;;;4.25;1.27;;;;;;;24.99;16.65;94750.06;5125754;28;20023;-75
2022/05/20 12:11:18;;;;;;;2.88;1.20;;;;;;;25.28;17.00;94756.44;5126031;28;20016;-74
2022/05/20 12:14:16;;;;;;;6.47;1.20;;;;;;;25.54;13.42;94749.84;5125979;28;20023;-75
2022/05/20 12:17:03;;;;;;;2.47;1.10;;;;;;;25.54;12.64;94747.09;5125209;28;20044;-75
2022/05/20 12:24:12;;;;;;;9.38;1.50;;;;;;;25.53;14.95;94731.13;5125651;28;20084;-75
2022/05/20 12:26:08;;;;;;;15.88;1.75;;;;;;;25.93;16.09;94737.41;5125458;28;20024;-75
2022/05/20 12:28:36;;;;;;;4.60;1.23;;;;;;;26.12;13.74;94730.81;5125841;28;20112;-74